De Xin Hai — BQBP — position and weather

sailwx.info

Track history (hours):
 
Tides and Currents Weather Stations Pressure Air Temp Water Temp Dewpoint Dewpoint Depression Visibility Wind Speed Wind Dir Waves Ship Positions

De Xin Hai

Last reported at 2015-Feb-12 14:09 UTC. Time now 2015-Mar-06 07:37 UTC.
Position N 35°60' W 005°11'.
Warning: this ship's position is 21 days out of date.

Length 225 m; draft 6.9 m.

Type: Cargo ship. MMSI: 367344200.

Date/timePositionNaut miles runAvg speedWind from/ knotsBaromVisibWave heightAir tempDewpointWater temp
2015-Feb-12 14:09N 35°60' W 005°11'711.8
2015-Feb-12 13:33N 35°59' W 005°20'23111.0
2015-Feb-11 16:29N 37°30' W 009°46'1212.4
2015-Feb-11 15:33N 37°41' W 009°49'4012.6
2015-Feb-11 12:22N 38°20' W 010°01'1012.7
2015-Feb-11 11:33N 38°30' W 010°03'1312.6
2015-Feb-11 10:30N 38°43' W 010°07'1712.1
2015-Feb-11 09:05N 39°00' W 010°07'812.1
2015-Feb-11 08:25N 39°08' W 010°07'  
2015-Feb-08 09:15N 50°23' W 000°35'811.2
2015-Feb-08 08:33N 50°26' W 000°23'1612.7
2015-Feb-08 07:19N 50°30' E 000°00'1113.6
2015-Feb-08 06:32N 50°33' E 000°16'1313.6
2015-Feb-08 05:33N 50°38' E 000°36'1313.3
2015-Feb-08 04:33N 50°46' E 000°53'1212.2
2015-Feb-08 03:33N 50°53' E 001°08'1110.6
2015-Feb-08 02:34N 51°00' E 001°21'1110.9
2015-Feb-08 01:33N 51°07' E 001°34'1211.9
2015-Feb-08 00:33N 51°16' E 001°47'1413.9
2015-Feb-07 23:33N 51°28' E 001°58'1514.5
2015-Feb-07 22:34N 51°39' E 002°14'3912.7
2015-Feb-07 19:29N 52°14' E 002°40'1111.4
2015-Feb-07 18:28N 52°24' E 002°49'5811.4
2015-Feb-07 13:21N 53°18' E 003°27'1212.7
2015-Feb-07 12:22N 53°30' E 003°34'1112.7
2015-Feb-07 11:29N 53°41' E 003°40'1611.6
2015-Feb-07 10:05N 53°52' E 003°60'611.6
2015-Feb-07 09:32N 53°56' E 004°08'2411.8
2015-Feb-07 07:32N 54°16' E 004°30'1212.2
2015-Feb-07 06:32N 54°26' E 004°40'27411.4
2015-Feb-06 06:32N 57°48' E 010°13'1111.2
2015-Feb-06 05:33N 57°49' E 010°34'1010.1
2015-Feb-06 04:33N 57°46' E 010°52'9 9.1
2015-Feb-06 03:33N 57°39' E 011°03'1212.0
2015-Feb-06 02:33N 57°31' E 011°20'1211.8
2015-Feb-06 01:33N 57°21' E 011°31'1312.7
2015-Feb-06 00:33N 57°09' E 011°38'1212.4
2015-Feb-05 23:33N 56°57' E 011°46'1212.2
2015-Feb-05 22:33N 56°46' E 011°52'1212.0
2015-Feb-05 21:33N 56°35' E 011°42'12010.9
2015-Feb-05 10:33N 54°38' E 010°56'1212.2
2015-Feb-05 09:33N 54°35' E 011°16'1312.7
2015-Feb-05 08:33N 54°29' E 011°36'1212.3
2015-Feb-05 07:33N 54°27' E 011°56'1010.3
2015-Feb-05 06:33N 54°30' E 012°13'1110.9
2015-Feb-05 05:30N 54°39' E 012°25'1112.0
2015-Feb-05 04:33N 54°46' E 012°41'1212.2
2015-Feb-05 03:33N 54°51' E 013°01'1413.1
2015-Feb-05 02:28N 54°56' E 013°24'1213.0
2015-Feb-05 01:33N 55°00' E 013°43'1511.8
2015-Feb-05 00:16N 55°07' E 014°06'1011.8
2015-Feb-04 23:27N 55°14' E 014°18'1112.0
2015-Feb-04 22:33N 55°23' E 014°30'1211.9
2015-Feb-04 21:33N 55°30' E 014°47'1312.1
2015-Feb-04 20:29N 55°35' E 015°08'  
Track history (hours):
 
Tides and Currents Weather Stations Pressure Air Temp Water Temp Dewpoint Dewpoint Depression Visibility Wind Speed Wind Dir Waves Ship Positions

De Xin Hai

Last reported at 2015-Feb-12 14:09 UTC. Time now 2015-Mar-06 07:37 UTC.
Position N 35°60' W 005°11'.
Warning: this ship's position is 21 days out of date.

Length 225 m; draft 6.9 m.

Type: Cargo ship. MMSI: 367344200.

Date/timePositionNaut miles runAvg speedWind from/ knotsBaromVisibWave heightAir tempDewpointWater temp
2015-Feb-12 14:09N 35°60' W 005°11'711.8
2015-Feb-12 13:33N 35°59' W 005°20'23111.0
2015-Feb-11 16:29N 37°30' W 009°46'1212.4
2015-Feb-11 15:33N 37°41' W 009°49'4012.6
2015-Feb-11 12:22N 38°20' W 010°01'1012.7
2015-Feb-11 11:33N 38°30' W 010°03'1312.6
2015-Feb-11 10:30N 38°43' W 010°07'1712.1
2015-Feb-11 09:05N 39°00' W 010°07'812.1
2015-Feb-11 08:25N 39°08' W 010°07'  
2015-Feb-08 09:15N 50°23' W 000°35'811.2
2015-Feb-08 08:33N 50°26' W 000°23'1612.7
2015-Feb-08 07:19N 50°30' E 000°00'1113.6
2015-Feb-08 06:32N 50°33' E 000°16'1313.6
2015-Feb-08 05:33N 50°38' E 000°36'1313.3
2015-Feb-08 04:33N 50°46' E 000°53'1212.2
2015-Feb-08 03:33N 50°53' E 001°08'1110.6
2015-Feb-08 02:34N 51°00' E 001°21'1110.9
2015-Feb-08 01:33N 51°07' E 001°34'1211.9
2015-Feb-08 00:33N 51°16' E 001°47'1413.9
2015-Feb-07 23:33N 51°28' E 001°58'1514.5
2015-Feb-07 22:34N 51°39' E 002°14'3912.7
2015-Feb-07 19:29N 52°14' E 002°40'1111.4
2015-Feb-07 18:28N 52°24' E 002°49'5811.4
2015-Feb-07 13:21N 53°18' E 003°27'1212.7
2015-Feb-07 12:22N 53°30' E 003°34'1112.7
2015-Feb-07 11:29N 53°41' E 003°40'1611.6
2015-Feb-07 10:05N 53°52' E 003°60'611.6
2015-Feb-07 09:32N 53°56' E 004°08'2411.8
2015-Feb-07 07:32N 54°16' E 004°30'1212.2
2015-Feb-07 06:32N 54°26' E 004°40'27411.4
2015-Feb-06 06:32N 57°48' E 010°13'1111.2
2015-Feb-06 05:33N 57°49' E 010°34'1010.1
2015-Feb-06 04:33N 57°46' E 010°52'9 9.1
2015-Feb-06 03:33N 57°39' E 011°03'1212.0
2015-Feb-06 02:33N 57°31' E 011°20'1211.8
2015-Feb-06 01:33N 57°21' E 011°31'1312.7
2015-Feb-06 00:33N 57°09' E 011°38'1212.4
2015-Feb-05 23:33N 56°57' E 011°46'1212.2
2015-Feb-05 22:33N 56°46' E 011°52'1212.0
2015-Feb-05 21:33N 56°35' E 011°42'12010.9
2015-Feb-05 10:33N 54°38' E 010°56'1212.2
2015-Feb-05 09:33N 54°35' E 011°16'1312.7
2015-Feb-05 08:33N 54°29' E 011°36'1212.3
2015-Feb-05 07:33N 54°27' E 011°56'1010.3
2015-Feb-05 06:33N 54°30' E 012°13'1110.9
2015-Feb-05 05:30N 54°39' E 012°25'1112.0
2015-Feb-05 04:33N 54°46' E 012°41'1212.2
2015-Feb-05 03:33N 54°51' E 013°01'1413.1
2015-Feb-05 02:28N 54°56' E 013°24'1213.0
2015-Feb-05 01:33N 55°00' E 013°43'1511.8
2015-Feb-05 00:16N 55°07' E 014°06'1011.8
2015-Feb-04 23:27N 55°14' E 014°18'1112.0
2015-Feb-04 22:33N 55°23' E 014°30'1211.9
2015-Feb-04 21:33N 55°30' E 014°47'1312.1
2015-Feb-04 20:29N 55°35' E 015°08'  

Dump ship's entire track history